Time;durP1;ratioP1;P1;durP2;ratioP2;P2;SDS_P1;SDS_P2;PMS_P1;PMS_P2;Temp;Humidity;BMP_temperature;BMP_pressure;BME280_temperature;BME280_humidity;BME280_pressure;Samples;Min_cycle;Max_cycle;Signal;HPM_P1;HPM_P2
2022/06/11 00:02:01;;;;;;;5.73;5.10;;;;;;;18.82;91.30;96569.03;5067575;28;20229;-72
2022/06/11 00:04:38;;;;;;;6.07;4.80;;;;;;;18.58;92.85;96566.72;5066588;28;20187;-72
2022/06/11 00:07:10;;;;;;;6.20;5.40;;;;;;;18.51;93.37;96557.69;5067692;28;20224;-73
2022/06/11 00:09:38;;;;;;;6.03;5.43;;;;;;;18.18;94.01;96544.78;5066530;28;20719;-72
2022/06/11 00:12:07;;;;;;;5.33;4.83;;;;;;;17.91;93.82;96547.06;5049201;28;20202;-72
2022/06/11 00:14:35;;;;;;;5.00;4.27;;;;;;;18.08;93.16;96550.91;5049127;28;20200;-74
2022/06/11 00:17:04;;;;;;;5.90;4.03;;;;;;;18.21;92.42;96541.09;5066550;28;20613;-75
2022/06/11 00:19:33;;;;;;;6.30;3.57;;;;;;;18.56;91.53;96573.91;5067306;28;20319;-72
2022/06/11 00:22:01;;;;;;;6.63;3.73;;;;;;;18.74;90.31;96566.22;5066174;28;20199;-72
2022/06/11 00:24:29;;;;;;;4.20;3.20;;;;;;;18.72;88.86;96568.16;5067078;28;20312;-74
2022/06/11 00:26:58;;;;;;;4.60;2.90;;;;;;;18.56;88.03;96566.03;5048146;28;20278;-73
2022/06/11 00:29:29;;;;;;;3.53;3.17;;;;;;;18.04;89.60;96532.00;5066748;28;20695;-71
2022/06/11 00:31:57;;;;;;;3.03;2.73;;;;;;;18.16;89.66;96556.34;5048923;28;20708;-73
2022/06/11 00:34:24;;;;;;;3.73;3.00;;;;;;;18.18;90.65;96552.66;5066595;28;20182;-73
2022/06/11 00:36:52;;;;;;;6.10;3.47;;;;;;;18.01;90.61;96549.78;5049385;28;20192;-75
2022/06/11 00:39:22;;;;;;;4.87;3.43;;;;;;;17.84;91.11;96530.22;5069249;28;20217;-72
2022/06/11 00:41:53;;;;;;;3.10;2.80;;;;;;;17.99;91.22;96562.19;5071466;28;20271;-74
2022/06/11 00:44:20;;;;;;;5.37;2.83;;;;;;;18.22;91.14;96543.56;5052486;28;20195;-74
2022/06/11 00:46:50;;;;;;;4.73;3.10;;;;;;;18.43;90.82;96554.91;5070610;28;20253;-72
2022/06/11 00:49:20;;;;;;;4.97;2.87;;;;;;;18.39;89.90;96561.34;5071234;28;20659;-75
2022/06/11 00:51:48;;;;;;;4.13;3.03;;;;;;;18.37;90.21;96558.00;5069785;28;21058;-73
2022/06/11 00:54:21;;;;;;;3.73;3.20;;;;;;;18.38;90.40;96549.16;5036689;28;20822;-73
2022/06/11 00:56:53;;;;;;;4.50;3.00;;;;;;;18.50;90.88;96549.97;5069832;28;20186;-73
2022/06/11 00:59:41;;;;;;;3.13;2.70;;;;;;;18.58;89.73;96561.47;5052873;28;20253;-74
2022/06/11 01:02:10;;;;;;;6.10;2.53;;;;;;;18.57;89.17;96553.72;5052561;28;20733;-74
2022/06/11 01:04:47;;;;;;;2.80;2.60;;;;;;;18.55;88.56;96553.03;5051593;28;20201;-75
2022/06/11 01:07:22;;;;;;;3.07;2.67;;;;;;;18.43;88.30;96547.03;5070712;28;20201;-75
2022/06/11 01:10:08;;;;;;;4.83;3.00;;;;;;;18.70;88.87;96554.34;5069685;28;20195;-73
2022/06/11 01:12:50;;;;;;;4.87;3.17;;;;;;;18.62;90.57;96543.69;5069862;28;20203;-74
2022/06/11 01:15:24;;;;;;;4.17;2.63;;;;;;;18.76;89.34;96553.81;5070570;28;20195;-73
2022/06/11 01:18:06;;;;;;;3.23;2.70;;;;;;;18.43;89.17;96559.28;5069492;28;20197;-73
2022/06/11 01:20:58;;;;;;;3.97;3.17;;;;;;;18.38;88.83;96558.84;5070310;28;20276;-72
2022/06/11 01:24:07;;;;;;;2.97;2.47;;;;;;;18.36;89.18;96568.63;5052173;28;20671;-74
2022/06/11 01:26:49;;;;;;;5.47;3.00;;;;;;;18.62;88.69;96562.03;5031130;28;20225;-73
2022/06/11 01:29:48;;;;;;;3.97;3.10;;;;;;;18.50;88.09;96557.84;5035634;28;20191;-72
2022/06/11 01:32:40;;;;;;;3.43;3.00;;;;;;;18.68;88.76;96548.41;5069919;28;20191;-72
2022/06/11 01:35:18;;;;;;;4.80;3.50;;;;;;;18.85;88.34;96552.19;5069134;28;20360;-72
2022/06/11 01:37:51;;;;;;;4.87;3.27;;;;;;;18.77;88.23;96545.00;5069993;28;20208;-73
2022/06/11 01:40:53;;;;;;;3.23;2.90;;;;;;;18.58;88.67;96534.41;5068993;28;20227;-73
2022/06/11 01:43:31;;;;;;;3.03;2.73;;;;;;;18.53;88.43;96541.84;5062517;28;20635;-73
2022/06/11 01:46:01;;;;;;;5.03;3.03;;;;;;;18.74;88.25;96534.75;5070184;28;20539;-72
2022/06/11 01:48:30;;;;;;;3.90;3.30;;;;;;;18.70;87.85;96535.97;5033954;28;20186;-72
2022/06/11 01:51:21;;;;;;;3.80;3.37;;;;;;;18.64;88.42;96528.63;5069727;28;20200;-71
2022/06/11 01:54:14;;;;;;;5.93;3.60;;;;;;;18.60;88.57;96532.50;5069554;28;20657;-74
2022/06/11 01:57:20;;;;;;;4.07;3.60;;;;;;;18.67;88.97;96525.75;5068394;28;20191;-72
2022/06/11 01:59:53;;;;;;;7.07;4.57;;;;;;;18.84;89.43;96540.88;5051291;28;20775;-73
2022/06/11 02:02:54;;;;;;;7.57;4.90;;;;;;;18.88;89.48;96538.78;5069285;28;20198;-74
2022/06/11 02:05:31;;;;;;;8.07;4.80;;;;;;;18.44;89.72;96540.00;5068553;28;20184;-73
2022/06/11 02:08:01;;;;;;;7.47;4.90;;;;;;;18.39;90.09;96542.16;5051711;28;20563;-74
2022/06/11 02:10:39;;;;;;;7.97;5.70;;;;;;;18.39;90.27;96542.16;5069039;28;20250;-74
2022/06/11 02:13:14;;;;;;;6.50;5.90;;;;;;;18.38;90.07;96549.16;5069048;28;20226;-75
2022/06/11 02:15:43;;;;;;;7.50;6.00;;;;;;;18.56;89.73;96550.28;5051683;28;20705;-76
2022/06/11 02:18:15;;;;;;;7.37;5.40;;;;;;;18.64;89.49;96541.75;5068469;28;20282;-73
2022/06/11 02:20:49;;;;;;;7.03;5.10;;;;;;;18.65;90.14;96548.66;5069466;28;20222;-74
2022/06/11 02:23:22;;;;;;;6.17;5.57;;;;;;;18.79;91.09;96536.97;5050753;28;20690;-74
2022/06/11 02:25:59;;;;;;;6.87;5.27;;;;;;;18.82;90.30;96526.22;5068936;28;20238;-75
2022/06/11 02:28:31;;;;;;;5.77;4.90;;;;;;;18.97;89.66;96528.34;5069042;28;20196;-75
2022/06/11 02:31:02;;;;;;;5.17;4.37;;;;;;;18.83;89.85;96501.66;5050145;28;20189;-74
2022/06/11 02:33:31;;;;;;;6.43;4.40;;;;;;;18.86;90.20;96538.09;5069134;28;20194;-71
2022/06/11 02:36:04;;;;;;;5.33;3.77;;;;;;;18.97;89.56;96533.59;5068141;28;20260;-75
2022/06/11 02:38:31;;;;;;;5.63;3.13;;;;;;;18.88;88.87;96528.28;5068822;28;20257;-75
2022/06/11 02:41:02;;;;;;;4.37;3.57;;;;;;;18.78;88.88;96515.16;5068489;28;20651;-77
2022/06/11 02:43:29;;;;;;;5.87;4.03;;;;;;;18.62;90.20;96522.69;5068045;28;20183;-75
2022/06/11 02:45:56;;;;;;;5.63;4.27;;;;;;;18.40;91.01;96515.78;5068885;28;20228;-75
2022/06/11 02:48:24;;;;;;;6.83;5.00;;;;;;;18.27;91.43;96522.22;5067826;28;20860;-75
2022/06/11 02:50:51;;;;;;;6.43;4.90;;;;;;;18.14;92.57;96516.34;5034376;28;20760;-75
2022/06/11 02:53:18;;;;;;;6.57;4.77;;;;;;;18.09;93.03;96526.38;5067675;28;20194;-74
2022/06/11 02:55:45;;;;;;;6.23;4.30;;;;;;;18.19;92.48;96517.63;5068555;28;20202;-75
2022/06/11 02:58:14;;;;;;;4.67;4.17;;;;;;;18.34;91.61;96516.31;5068281;28;20191;-76
2022/06/11 03:00:45;;;;;;;7.93;4.43;;;;;;;18.36;91.52;96513.59;5066839;28;20739;-76
2022/06/11 03:03:12;;;;;;;6.13;3.97;;;;;;;18.41;90.86;96509.59;5068295;28;20186;-75
2022/06/11 03:05:41;;;;;;;6.87;4.57;;;;;;;18.50;90.87;96510.63;5067267;28;20196;-75
2022/06/11 03:08:09;;;;;;;5.07;3.93;;;;;;;18.51;90.85;96505.25;5068452;28;20211;-76
2022/06/11 03:10:37;;;;;;;6.30;4.07;;;;;;;18.63;90.41;96508.59;5049654;28;20183;-77
2022/06/11 03:13:06;;;;;;;6.10;4.30;;;;;;;18.60;90.54;96507.09;5068092;28;20285;-77
2022/06/11 03:15:33;;;;;;;6.13;3.70;;;;;;;18.57;90.68;96520.47;5050199;28;20184;-76
2022/06/11 03:18:00;;;;;;;5.77;3.77;;;;;;;18.52;90.93;96516.59;5067430;28;20192;-75
2022/06/11 03:20:30;;;;;;;5.03;3.20;;;;;;;18.56;89.94;96520.59;5067971;28;20605;-75
2022/06/11 03:22:57;;;;;;;5.27;3.50;;;;;;;18.61;89.81;96529.72;5066984;28;20192;-74
2022/06/11 03:25:25;;;;;;;6.43;3.50;;;;;;;18.59;89.99;96520.31;5050174;28;20635;-73
2022/06/11 03:27:52;;;;;;;6.67;4.20;;;;;;;18.54;90.32;96505.00;5049393;28;20236;-74
2022/06/11 03:30:20;;;;;;;3.83;3.37;;;;;;;18.71;89.17;96518.47;5067871;28;20196;-74
2022/06/11 03:32:47;;;;;;;3.83;3.53;;;;;;;18.69;89.41;96506.28;5049712;28;20186;-72
2022/06/11 03:35:14;;;;;;;3.80;3.30;;;;;;;18.75;88.66;96510.19;5067030;28;20190;-76
2022/06/11 03:37:42;;;;;;;4.20;3.53;;;;;;;18.60;88.22;96495.78;5067930;28;20665;-72
2022/06/11 03:40:09;;;;;;;4.87;3.27;;;;;;;18.56;88.03;96510.09;5066646;28;20219;-74
2022/06/11 03:42:37;;;;;;;4.63;3.20;;;;;;;18.51;88.16;96512.28;5067654;28;20191;-72
2022/06/11 03:45:04;;;;;;;4.90;3.77;;;;;;;18.49;89.11;96508.97;5048556;28;20578;-75
2022/06/11 03:47:32;;;;;;;4.10;3.70;;;;;;;18.58;89.27;96511.66;5067336;28;20217;-76
2022/06/11 03:49:59;;;;;;;4.23;3.83;;;;;;;18.60;89.48;96503.63;5067241;28;20256;-72
2022/06/11 03:52:27;;;;;;;4.30;3.90;;;;;;;18.62;89.70;96502.56;5066734;28;20198;-73
2022/06/11 03:54:55;;;;;;;4.83;4.43;;;;;;;18.67;89.55;96507.38;5067578;28;20194;-72
2022/06/11 03:57:23;;;;;;;5.17;4.40;;;;;;;18.75;90.08;96518.06;5066411;28;20195;-74
2022/06/11 03:59:50;;;;;;;5.60;4.30;;;;;;;18.66;90.23;96516.22;5067525;28;20626;-73
2022/06/11 04:02:17;;;;;;;5.80;4.57;;;;;;;18.53;89.68;96518.22;5066274;28;20184;-73
2022/06/11 04:04:45;;;;;;;6.07;4.20;;;;;;;18.49;90.42;96522.06;5067576;28;20207;-74
2022/06/11 04:07:13;;;;;;;5.93;4.80;;;;;;;18.63;90.44;96524.34;5067294;28;20671;-75
2022/06/11 04:09:43;;;;;;;5.30;4.80;;;;;;;18.73;90.51;96524.41;5066718;28;20195;-74
2022/06/11 04:12:15;;;;;;;6.67;4.80;;;;;;;18.82;90.58;96531.47;5067198;28;20187;-71
2022/06/11 04:14:46;;;;;;;7.10;6.40;;;;;;;18.85;90.76;96532.03;5066123;28;20241;-72
2022/06/11 04:17:33;;;;;;;6.20;5.43;;;;;;;18.87;89.76;96530.13;5032858;28;20198;-73
2022/06/11 04:20:00;;;;;;;8.63;5.97;;;;;;;18.85;90.05;96523.34;5048420;28;20190;-71
2022/06/11 04:22:29;;;;;;;7.47;5.87;;;;;;;18.86;90.22;96523.19;5066696;28;20217;-76
2022/06/11 04:24:56;;;;;;;7.17;6.03;;;;;;;18.90;89.49;96532.47;5067066;28;20231;-76
2022/06/11 04:27:23;;;;;;;7.93;6.57;;;;;;;18.82;89.66;96521.78;5066214;28;20214;-76
2022/06/11 04:29:57;;;;;;;7.27;6.10;;;;;;;18.82;89.74;96532.28;5067354;28;20187;-76
2022/06/11 04:32:26;;;;;;;6.60;5.90;;;;;;;18.89;90.11;96541.31;5066120;28;20186;-73
2022/06/11 04:34:54;;;;;;;7.43;6.63;;;;;;;18.85;90.01;96531.19;5067128;28;20203;-74
2022/06/11 04:37:23;;;;;;;9.67;7.00;;;;;;;18.85;90.23;96537.28;5066668;28;20195;-75
2022/06/11 04:39:53;;;;;;;8.75;6.85;;;;;;;18.94;89.85;96540.91;5066286;28;20195;-77
2022/06/11 04:42:21;;;;;;;9.80;6.90;;;;;;;19.07;89.22;96562.47;5066993;28;20616;-76
2022/06/11 04:44:48;;;;;;;9.83;7.67;;;;;;;19.11;89.07;96567.34;5066130;28;20645;-76
2022/06/11 04:47:19;;;;;;;7.63;6.63;;;;;;;19.10;88.64;96575.34;5067178;28;20193;-73
2022/06/11 04:49:47;;;;;;;7.73;6.27;;;;;;;19.14;88.33;96577.59;5065433;28;20200;-75
2022/06/11 04:52:15;;;;;;;8.67;7.77;;;;;;;18.83;88.64;96570.69;5048614;28;20683;-76
2022/06/11 04:54:42;;;;;;;10.73;7.53;;;;;;;18.74;89.24;96578.50;5066329;28;20191;-73
2022/06/11 04:57:10;;;;;;;11.27;9.23;;;;;;;18.62;91.10;96583.03;5066135;28;20252;-72
2022/06/11 04:59:37;;;;;;;11.03;9.17;;;;;;;18.67;91.25;96573.78;5066737;28;20237;-74
2022/06/11 05:02:05;;;;;;;9.20;8.20;;;;;;;18.55;91.34;96580.09;5047622;28;20231;-75
2022/06/11 05:04:32;;;;;;;9.80;7.57;;;;;;;18.69;91.07;96584.97;5067007;28;20183;-73
2022/06/11 05:06:59;;;;;;;8.87;7.97;;;;;;;18.76;90.50;96582.66;5065585;28;20203;-75
2022/06/11 05:09:30;;;;;;;9.63;7.70;;;;;;;18.77;90.36;96584.34;5066436;28;20248;-73
2022/06/11 05:11:57;;;;;;;12.17;9.30;;;;;;;18.59;91.43;96584.09;5066305;28;20671;-73
2022/06/11 05:14:25;;;;;;;9.77;8.50;;;;;;;18.49;91.99;96593.72;5066036;28;20656;-74
2022/06/11 05:16:56;;;;;;;11.07;9.97;;;;;;;18.47;92.67;96584.31;5066713;28;20596;-74
2022/06/11 05:19:23;;;;;;;11.43;9.53;;;;;;;18.32;93.45;96588.22;5047374;28;20195;-73
2022/06/11 05:21:51;;;;;;;10.20;9.10;;;;;;;18.44;92.69;96589.84;5066750;28;20227;-73
2022/06/11 05:24:20;;;;;;;10.73;8.37;;;;;;;18.54;92.78;96593.34;5067200;28;20252;-73
2022/06/11 05:26:50;;;;;;;11.80;9.47;;;;;;;18.53;92.10;96587.25;5070133;28;20708;-74
2022/06/11 05:29:32;;;;;;;11.70;9.10;;;;;;;18.73;91.67;96605.72;5070255;28;20222;-74
2022/06/11 05:32:00;;;;;;;10.63;9.53;;;;;;;18.78;91.20;96609.59;5069146;28;20187;-73
2022/06/11 05:34:29;;;;;;;13.37;10.90;;;;;;;18.89;90.90;96609.53;5070085;28;20187;-75
2022/06/11 05:36:58;;;;;;;13.00;10.97;;;;;;;19.02;91.09;96615.38;5068660;28;20242;-76
2022/06/11 05:39:25;;;;;;;11.27;9.30;;;;;;;19.10;90.64;96619.97;5069840;28;20268;-75
2022/06/11 05:41:52;;;;;;;13.27;9.60;;;;;;;18.90;91.10;96626.94;5069140;28;20215;-71
2022/06/11 05:44:21;;;;;;;11.47;9.53;;;;;;;18.92;90.48;96598.75;5069656;28;20709;-74
2022/06/11 05:46:49;;;;;;;10.43;9.40;;;;;;;19.02;91.00;96628.50;5070231;28;20595;-74
2022/06/11 05:49:21;;;;;;;14.00;11.70;;;;;;;19.10;90.67;96625.22;5069216;28;20222;-76
2022/06/11 05:51:54;;;;;;;15.13;10.67;;;;;;;18.75;90.97;96633.50;5070422;28;20623;-75
2022/06/11 05:54:25;;;;;;;12.80;11.37;;;;;;;18.80;91.85;96626.06;5050853;28;20584;-75
2022/06/11 05:56:53;;;;;;;13.37;10.90;;;;;;;18.76;92.03;96615.94;5070293;28;20203;-74
2022/06/11 05:59:25;;;;;;;10.83;9.70;;;;;;;18.77;92.03;96634.19;5069490;28;20191;-72
2022/06/11 06:01:54;;;;;;;10.93;8.63;;;;;;;18.76;91.00;96637.78;5069452;28;20220;-74
2022/06/11 06:04:21;;;;;;;16.37;13.73;;;;;;;19.09;90.00;96650.66;5051942;28;20337;-73
2022/06/11 06:06:48;;;;;;;15.77;11.90;;;;;;;19.14;89.31;96650.25;5046211;28;20693;-77
2022/06/11 06:09:15;;;;;;;11.27;9.23;;;;;;;19.19;88.12;96651.50;5059964;28;20204;-77
2022/06/11 06:11:42;;;;;;;13.47;8.80;;;;;;;19.28;87.50;96655.97;5035944;28;20207;-72
2022/06/11 06:14:09;;;;;;;9.80;8.43;;;;;;;19.31;86.94;96655.69;5054646;28;20200;-74
2022/06/11 06:16:37;;;;;;;9.33;7.47;;;;;;;18.91;88.15;96644.34;5053871;28;20193;-74
2022/06/11 06:19:07;;;;;;;9.57;7.60;;;;;;;18.60;89.59;96632.16;5050649;28;20650;-73
2022/06/11 06:21:37;;;;;;;13.23;8.00;;;;;;;18.80;90.12;96662.78;5050569;28;20219;-75
2022/06/11 06:24:05;;;;;;;10.37;9.27;;;;;;;18.88;91.18;96660.34;5051064;28;20185;-75
2022/06/11 06:26:32;;;;;;;12.63;9.27;;;;;;;19.17;90.51;96658.69;5031146;28;20229;-74
2022/06/11 06:29:00;;;;;;;13.13;9.63;;;;;;;19.05;91.23;96657.13;5029342;28;20745;-74
2022/06/11 06:31:27;;;;;;;13.90;11.03;;;;;;;19.27;90.18;96646.44;5030414;28;20186;-73
2022/06/11 06:34:00;;;;;;;14.30;11.47;;;;;;;19.39;89.44;96652.47;5028898;28;20190;-73
2022/06/11 06:36:31;;;;;;;12.30;10.37;;;;;;;19.49;89.96;96648.06;5028989;28;20196;-73
2022/06/11 06:38:58;;;;;;;13.47;10.90;;;;;;;19.69;88.75;96655.03;5027714;28;20580;-74
2022/06/11 06:41:26;;;;;;;14.97;11.17;;;;;;;19.69;88.84;96659.44;5028493;28;20307;-74
2022/06/11 06:43:53;;;;;;;18.27;13.83;;;;;;;19.95;87.06;96656.16;5029314;28;20340;-73
2022/06/11 06:46:21;;;;;;;14.30;12.33;;;;;;;19.81;86.71;96650.47;5028715;28;20259;-73
2022/06/11 06:48:48;;;;;;;16.33;12.50;;;;;;;19.89;87.79;96650.63;5028912;28;20189;-73
2022/06/11 06:51:18;;;;;;;12.13;10.63;;;;;;;19.97;86.27;96646.34;5028284;28;20189;-74
2022/06/11 06:53:45;;;;;;;11.70;10.50;;;;;;;19.96;86.07;96641.22;5028398;28;20193;-74
2022/06/11 06:56:13;;;;;;;15.23;12.37;;;;;;;20.03;86.06;96640.53;5028743;28;20576;-73
2022/06/11 06:58:40;;;;;;;14.70;12.63;;;;;;;20.04;86.32;96649.25;5028626;28;20205;-74
2022/06/11 07:01:08;;;;;;;14.73;11.40;;;;;;;20.12;85.25;96644.97;5029129;28;20607;-74
2022/06/11 07:03:35;;;;;;;15.70;12.87;;;;;;;20.20;85.42;96645.13;5027711;28;20605;-74
2022/06/11 07:06:04;;;;;;;12.53;10.93;;;;;;;20.33;85.48;96649.28;5028427;28;20197;-78
2022/06/11 07:08:32;;;;;;;13.30;11.20;;;;;;;20.23;86.02;96660.66;5028014;28;20187;-76
2022/06/11 07:11:00;;;;;;;14.87;10.60;;;;;;;20.36;85.88;96655.09;5028184;28;20194;-72
2022/06/11 07:13:31;;;;;;;14.93;11.90;;;;;;;20.28;85.88;96655.78;5028908;28;20221;-73
2022/06/11 07:16:00;;;;;;;12.93;9.60;;;;;;;20.14;85.26;96650.09;5026437;28;20194;-73
2022/06/11 07:18:33;;;;;;;15.57;12.60;;;;;;;20.02;85.88;96669.59;5028704;28;20204;-74
2022/06/11 07:21:04;;;;;;;13.00;10.10;;;;;;;20.03;85.13;96676.53;5027023;28;20724;-73
2022/06/11 07:23:40;;;;;;;11.43;9.70;;;;;;;19.98;84.98;96681.34;5026719;28;20263;-74
2022/06/11 07:26:47;;;;;;;13.40;9.93;;;;;;;19.91;85.37;96686.31;5036719;28;20744;-75
2022/06/11 07:30:16;;;;;;;16.70;12.40;;;;;;;19.90;86.63;96689.94;5045326;28;20204;-76
2022/06/11 07:33:02;;;;;;;17.07;13.60;;;;;;;19.97;87.48;96691.03;5059811;28;20264;-74
2022/06/11 07:36:38;;;;;;;13.67;12.10;;;;;;;19.88;88.11;96697.13;5066526;28;20792;-76
2022/06/11 07:39:58;;;;;;;19.50;13.40;;;;;;;19.92;88.28;96698.50;5066954;28;20192;-73
2022/06/11 07:43:24;;;;;;;11.90;10.70;;;;;;;19.73;86.91;96702.88;5065636;28;20311;-74
2022/06/11 07:46:40;;;;;;;15.77;11.33;;;;;;;19.87;87.43;96687.56;5033943;28;20287;-76
2022/06/11 07:49:07;;;;;;;13.40;10.50;;;;;;;19.84;86.48;96692.25;5033498;28;20188;-74
2022/06/11 07:51:34;;;;;;;12.27;10.30;;;;;;;20.01;85.61;96688.97;5064335;28;20196;-73
2022/06/11 07:54:02;;;;;;;9.70;8.50;;;;;;;19.78;84.70;96674.41;5034890;28;20564;-75
2022/06/11 07:56:29;;;;;;;10.17;9.00;;;;;;;19.90;84.62;96668.06;5045939;28;20668;-75
2022/06/11 07:58:56;;;;;;;9.23;8.33;;;;;;;19.77;83.97;96654.34;5048161;28;20200;-74
2022/06/11 08:01:23;;;;;;;14.03;9.30;;;;;;;19.91;84.60;96664.44;5032635;28;20235;-74
2022/06/11 08:03:50;;;;;;;13.87;9.33;;;;;;;20.00;84.59;96645.25;5048393;28;20283;-77
2022/06/11 08:06:17;;;;;;;11.20;8.70;;;;;;;19.98;84.09;96645.38;5049640;28;20724;-78
2022/06/11 08:08:45;;;;;;;10.70;9.10;;;;;;;20.06;84.04;96642.91;5066140;28;20675;-78
2022/06/11 08:11:12;;;;;;;11.47;9.40;;;;;;;20.16;83.65;96646.34;5067472;28;20566;-77
2022/06/11 08:13:39;;;;;;;11.60;10.47;;;;;;;20.16;83.42;96648.16;5067151;28;20222;-74
2022/06/11 08:16:07;;;;;;;11.03;9.93;;;;;;;20.20;84.25;96654.81;5048567;28;20180;-75
2022/06/11 08:18:34;;;;;;;12.87;11.10;;;;;;;20.22;83.91;96645.00;5067370;28;20228;-75
2022/06/11 08:21:01;;;;;;;12.20;10.83;;;;;;;20.22;83.77;96655.50;5047850;28;20797;-77
2022/06/11 08:23:29;;;;;;;15.70;12.13;;;;;;;20.28;85.33;96652.31;5066801;28;20885;-74
2022/06/11 08:25:56;;;;;;;12.67;11.07;;;;;;;20.27;85.34;96666.47;5065413;28;20227;-74
2022/06/11 08:28:24;;;;;;;14.53;11.73;;;;;;;20.52;85.22;96665.91;5049015;28;20199;-74
2022/06/11 08:30:51;;;;;;;21.63;18.50;;;;;;;20.54;85.16;96668.38;5066225;28;20196;-73
2022/06/11 08:33:19;;;;;;;14.97;13.37;;;;;;;20.39;84.79;96669.78;5048047;28;20210;-73
2022/06/11 08:35:46;;;;;;;17.93;13.83;;;;;;;20.42;85.85;96675.59;5066555;28;20177;-74
2022/06/11 08:38:13;;;;;;;17.27;12.03;;;;;;;20.37;85.83;96675.19;5065453;28;20196;-74
2022/06/11 08:40:55;;;;;;;15.67;13.03;;;;;;;20.47;85.78;96680.41;5066999;28;20197;-73
2022/06/11 08:43:36;;;;;;;12.60;11.10;;;;;;;20.38;85.71;96668.13;5047741;28;20612;-74
2022/06/11 08:46:12;;;;;;;16.97;10.90;;;;;;;20.24;86.00;96671.97;5048175;28;20204;-75
2022/06/11 08:48:42;;;;;;;14.67;12.03;;;;;;;20.25;86.68;96668.41;5068155;28;20195;-75
2022/06/11 08:51:45;;;;;;;11.63;10.20;;;;;;;20.21;87.07;96667.00;5048206;28;20188;-74
2022/06/11 08:54:20;;;;;;;12.03;10.10;;;;;;;20.13;86.76;96661.59;5066727;28;20792;-75
2022/06/11 08:57:12;;;;;;;11.80;10.60;;;;;;;20.19;86.04;96661.03;5065533;28;20624;-75
2022/06/11 09:00:17;;;;;;;15.00;12.20;;;;;;;20.28;86.17;96654.97;5068925;28;20287;-75
2022/06/11 09:03:12;;;;;;;13.80;10.33;;;;;;;19.99;86.29;96654.91;5070789;28;20601;-78
2022/06/11 09:05:59;;;;;;;14.10;11.57;;;;;;;20.02;87.26;96651.19;5070153;28;20193;-75
2022/06/11 09:08:38;;;;;;;12.77;11.37;;;;;;;20.00;87.29;96653.13;5052107;28;20208;-74
2022/06/11 09:11:50;;;;;;;14.63;11.57;;;;;;;19.83;88.06;96649.38;5036172;28;20206;-77
2022/06/11 09:14:47;;;;;;;12.50;10.47;;;;;;;19.71;88.72;96657.50;5070358;28;20207;-77
2022/06/11 09:17:52;;;;;;;12.07;10.17;;;;;;;19.58;88.52;96664.81;5063789;28;20627;-74
2022/06/11 09:20:22;;;;;;;12.13;10.37;;;;;;;19.66;88.41;96659.72;5051931;28;20201;-74
2022/06/11 09:22:49;;;;;;;11.67;10.20;;;;;;;19.71;88.44;96668.00;5069359;28;20220;-73
2022/06/11 09:25:23;;;;;;;12.53;10.13;;;;;;;19.52;89.04;96665.31;5035193;28;20197;-73
2022/06/11 09:28:16;;;;;;;15.87;11.63;;;;;;;19.72;88.63;96664.44;5035210;28;20208;-75
2022/06/11 09:30:47;;;;;;;15.40;12.07;;;;;;;19.99;88.98;96646.22;5068685;28;20220;-74
2022/06/11 09:33:18;;;;;;;15.77;12.93;;;;;;;20.21;89.16;96661.75;5069927;28;20199;-73
2022/06/11 09:36:01;;;;;;;15.47;11.27;;;;;;;20.19;88.06;96632.09;5051116;28;20675;-74
2022/06/11 09:38:38;;;;;;;13.60;10.87;;;;;;;20.34;87.65;96651.75;5069037;28;20188;-73
2022/06/11 09:41:19;;;;;;;15.10;11.90;;;;;;;20.28;87.95;96649.69;5069680;28;20198;-75
2022/06/11 09:44:11;;;;;;;12.33;10.83;;;;;;;20.09;88.22;96634.72;5068813;28;20193;-72
2022/06/11 09:46:48;;;;;;;14.97;12.93;;;;;;;20.14;88.89;96647.47;5066341;28;20201;-76
2022/06/11 09:49:44;;;;;;;13.10;10.07;;;;;;;19.95;88.81;96650.06;5015328;28;20206;-76
2022/06/11 09:52:11;;;;;;;11.37;9.70;;;;;;;19.96;89.01;96659.63;5021331;28;20191;-74
2022/06/11 09:54:54;;;;;;;13.90;10.60;;;;;;;19.93;89.37;96657.25;5063852;28;20249;-74
2022/06/11 09:57:54;;;;;;;12.57;10.57;;;;;;;19.83;89.85;96656.41;5066650;28;20254;-76
2022/06/11 10:00:46;;;;;;;15.07;11.23;;;;;;;19.69;91.24;96659.44;5069075;28;20279;-77
2022/06/11 10:03:44;;;;;;;14.40;12.07;;;;;;;19.65;91.53;96658.03;5051361;28;20667;-74
2022/06/11 10:06:17;;;;;;;17.80;14.73;;;;;;;19.66;91.54;96649.22;5068439;28;20198;-75
2022/06/11 10:09:17;;;;;;;13.93;9.93;;;;;;;19.49;91.33;96648.88;5049554;28;20224;-76
2022/06/11 10:12:01;;;;;;;10.43;7.90;;;;;;;19.40;90.85;96647.06;4961006;28;20718;-72
2022/06/11 10:14:44;;;;;;;7.63;6.67;;;;;;;19.48;89.92;96644.59;5028545;28;20204;-75
2022/06/11 10:17:25;;;;;;;11.07;7.43;;;;;;;19.41;89.37;96635.56;5048803;28;20276;-77
2022/06/11 10:20:24;;;;;;;8.53;7.63;;;;;;;19.59;89.54;96645.44;5048282;28;20189;-76
2022/06/11 10:23:22;;;;;;;9.37;7.67;;;;;;;19.46;89.72;96643.06;5048260;28;20224;-75
2022/06/11 10:25:58;;;;;;;9.13;8.20;;;;;;;19.57;90.04;96637.72;5027439;28;20241;-73
2022/06/11 10:28:34;;;;;;;13.33;10.07;;;;;;;19.47;91.85;96640.28;5028200;28;20586;-75
2022/06/11 10:31:19;;;;;;;13.27;10.40;;;;;;;19.48;91.59;96644.59;5028742;28;20189;-76
2022/06/11 10:34:10;;;;;;;9.33;7.87;;;;;;;19.53;90.99;96643.38;5034327;28;20241;-74
2022/06/11 10:37:15;;;;;;;8.53;7.63;;;;;;;19.71;90.33;96645.19;5016763;28;20314;-72
2022/06/11 10:40:02;;;;;;;8.90;7.70;;;;;;;19.71;89.82;96647.00;5019348;28;20232;-73
2022/06/11 10:42:42;;;;;;;8.70;7.80;;;;;;;19.57;89.88;96613.22;5028512;28;20232;-76
2022/06/11 10:45:16;;;;;;;9.60;8.00;;;;;;;19.97;90.37;96638.44;5033400;28;20770;-76
2022/06/11 10:47:47;;;;;;;10.17;7.77;;;;;;;20.08;89.23;96640.13;5048547;28;20193;-74
2022/06/11 10:50:22;;;;;;;8.43;7.03;;;;;;;20.31;88.36;96641.53;5046810;28;20181;-75
2022/06/11 10:53:30;;;;;;;6.90;6.30;;;;;;;20.51;87.01;96640.53;5027795;28;20272;-76
2022/06/11 10:56:03;;;;;;;8.97;7.80;;;;;;;20.70;86.12;96637.88;5036417;28;20193;-75
2022/06/11 10:58:49;;;;;;;10.03;7.47;;;;;;;20.60;86.10;96630.97;5046973;28;20200;-75
2022/06/11 11:01:25;;;;;;;9.13;7.13;;;;;;;20.64;85.05;96627.09;5047709;28;20190;-77
2022/06/11 11:04:05;;;;;;;9.03;6.70;;;;;;;20.64;85.05;96635.81;5047218;28;20231;-77
2022/06/11 11:06:36;;;;;;;9.00;6.93;;;;;;;20.83;84.31;96637.59;5047293;28;20598;-78
2022/06/11 11:09:10;;;;;;;10.83;7.60;;;;;;;20.89;85.71;96637.84;5048032;28;20193;-77
2022/06/11 11:11:47;;;;;;;8.17;7.37;;;;;;;20.84;85.18;96639.22;5045772;28;20189;-74
2022/06/11 11:14:31;;;;;;;6.97;6.27;;;;;;;20.96;84.13;96638.91;5047197;28;20221;-77
2022/06/11 11:17:01;;;;;;;8.33;7.27;;;;;;;21.01;84.35;96641.13;5047054;28;20555;-76
2022/06/11 11:19:32;;;;;;;6.97;6.27;;;;;;;21.06;83.46;96639.75;5045601;28;20182;-74
2022/06/11 11:22:05;;;;;;;8.60;6.83;;;;;;;21.22;82.58;96636.50;5045420;28;20229;-74
2022/06/11 11:24:38;;;;;;;6.77;6.07;;;;;;;21.18;82.70;96634.31;5046223;28;20688;-74
2022/06/11 11:27:14;;;;;;;8.17;6.63;;;;;;;21.42;82.38;96626.69;5027227;28;20910;-76
2022/06/11 11:29:57;;;;;;;5.80;5.30;;;;;;;21.48;81.90;96631.38;5027149;28;20191;-74
2022/06/11 11:32:38;;;;;;;6.20;5.60;;;;;;;21.45;81.16;96644.88;5025729;28;20709;-73
2022/06/11 11:35:14;;;;;;;6.30;5.70;;;;;;;21.25;80.72;96638.84;5027566;28;20186;-74
2022/06/11 11:37:41;;;;;;;8.23;6.87;;;;;;;21.39;81.97;96627.00;4992470;28;20364;-76
2022/06/11 11:40:32;;;;;;;6.73;6.03;;;;;;;21.41;80.59;96635.59;5009594;28;20661;-77
2022/06/11 11:43:08;;;;;;;7.30;5.73;;;;;;;21.37;80.06;96627.13;5027055;28;20662;-75
2022/06/11 11:45:53;;;;;;;7.13;6.13;;;;;;;21.24;80.36;96639.84;5026685;28;20193;-74
2022/06/11 11:48:32;;;;;;;8.13;6.93;;;;;;;21.22;81.22;96623.34;5027184;28;20511;-74
2022/06/11 11:51:06;;;;;;;8.20;6.97;;;;;;;21.23;82.44;96625.00;5026471;28;20619;-75
2022/06/11 11:53:49;;;;;;;9.50;7.63;;;;;;;21.29;81.35;96634.94;5026637;28;20191;-73
2022/06/11 11:56:37;;;;;;;8.03;7.23;;;;;;;21.37;81.86;96627.13;5027227;28;20276;-74
2022/06/11 11:59:20;;;;;;;9.27;7.73;;;;;;;21.45;81.95;96627.22;5024652;28;20273;-77
2022/06/11 12:01:52;;;;;;;8.40;6.13;;;;;;;21.48;81.09;96612.94;5026813;28;20256;-73
2022/06/11 12:04:29;;;;;;;11.10;5.93;;;;;;;21.58;80.93;96617.19;5024872;28;20621;-74